Time;durP1;ratioP1;P1;durP2;ratioP2;P2;SDS_P1;SDS_P2;PMS_P1;PMS_P2;Temp;Humidity;BMP_temperature;BMP_pressure;BME280_temperature;BME280_humidity;BME280_pressure;Samples;Min_cycle;Max_cycle;Signal;HPM_P1;HPM_P2
2023/10/09 00:01:14;;;;;;;49.72;31.88;;;22.30;92.80;;;;;;6247241;23;20438;-81
2023/10/09 00:03:44;;;;;;;45.25;30.60;;;22.20;92.80;;;;;;6246290;23;20031;-80
2023/10/09 00:06:13;;;;;;;45.00;29.85;;;22.20;92.90;;;;;;6220655;23;20004;-80
2023/10/09 00:08:44;;;;;;;44.00;30.67;;;22.20;92.90;;;;;;6247355;23;20000;-81
2023/10/09 00:11:15;;;;;;;50.97;33.65;;;22.20;92.90;;;;;;6247478;23;20054;-80
2023/10/09 00:13:51;;;;;;;50.20;32.42;;;22.20;93.00;;;;;;6246442;23;20469;-80
2023/10/09 00:16:43;;;;;;;49.78;31.33;;;22.10;93.00;;;;;;6246351;23;20405;-80
2023/10/09 00:21:45;;;;;;;45.60;28.75;;;22.10;93.10;;;;;;6247824;23;20022;-80
2023/10/09 00:24:13;;;;;;;44.47;29.17;;;22.10;93.10;;;;;;6246943;23;20346;-80
2023/10/09 00:26:45;;;;;;;49.22;33.17;;;22.00;93.10;;;;;;6246281;23;20000;-80
2023/10/09 00:29:15;;;;;;;51.42;32.97;;;22.00;93.10;;;;;;6246876;23;19996;-80
2023/10/09 00:31:49;;;;;;;51.67;33.77;;;22.10;93.10;;;;;;6246734;23;20000;-80
2023/10/09 00:34:19;;;;;;;52.72;29.83;;;22.10;93.10;;;;;;6246746;23;20223;-80
2023/10/09 00:36:52;;;;;;;48.00;31.13;;;22.10;93.10;;;;;;6246358;23;20050;-80
2023/10/09 00:39:42;;;;;;;48.60;31.38;;;22.10;93.10;;;;;;6246302;23;20004;-80
2023/10/09 00:42:12;;;;;;;46.35;31.67;;;22.10;93.10;;;;;;6246625;23;20040;-80
2023/10/09 00:44:38;;;;;;;43.85;29.98;;;22.20;93.10;;;;;;6246042;23;20000;-80
2023/10/09 00:47:22;;;;;;;45.22;30.42;;;22.10;93.00;;;;;;6246818;23;20000;-80
2023/10/09 00:49:54;;;;;;;46.53;31.60;;;22.20;93.00;;;;;;6246945;23;20027;-80
2023/10/09 00:52:36;;;;;;;48.35;31.23;;;22.20;93.00;;;;;;6246225;23;20047;-80
2023/10/09 00:55:13;;;;;;;52.90;33.13;;;22.20;93.00;;;;;;6246640;23;20001;-80
2023/10/09 00:57:59;;;;;;;43.20;30.35;;;22.20;92.90;;;;;;6245878;23;20000;-80
2023/10/09 01:00:45;;;;;;;46.30;30.42;;;22.20;92.90;;;;;;6246505;23;20023;-80
2023/10/09 01:03:22;;;;;;;48.92;31.30;;;22.20;92.90;;;;;;6245721;23;20182;-80
2023/10/09 01:05:57;;;;;;;47.22;30.48;;;22.10;92.90;;;;;;6246437;23;20003;-83
2023/10/09 01:08:43;;;;;;;46.67;31.08;;;22.10;92.90;;;;;;6246013;23;20000;-80
2023/10/09 01:11:21;;;;;;;50.33;31.80;;;22.00;93.00;;;;;;6246436;23;20008;-85
2023/10/09 01:16:17;;;;;;;49.33;31.33;;;22.00;93.00;;;;;;6247514;23;20008;-82
2023/10/09 01:18:50;;;;;;;48.65;31.15;;;22.00;93.10;;;;;;6246156;23;20004;-83
2023/10/09 01:21:17;;;;;;;47.80;32.50;;;22.00;93.00;;;;;;6219635;23;20430;-83
2023/10/09 01:24:03;;;;;;;48.38;31.58;;;22.10;93.10;;;;;;6245993;23;20427;-83
2023/10/09 01:26:57;;;;;;;52.30;31.30;;;22.10;93.00;;;;;;6245676;23;20027;-81
2023/10/09 01:29:27;;;;;;;45.67;29.33;;;22.10;93.00;;;;;;6241648;23;20047;-82
2023/10/09 01:31:55;;;;;;;47.42;30.75;;;22.00;93.00;;;;;;6246425;23;20035;-82
2023/10/09 01:34:49;;;;;;;47.80;30.15;;;22.00;93.00;;;;;;6245670;23;20061;-82
2023/10/09 01:37:18;;;;;;;51.60;31.20;;;22.00;92.90;;;;;;6245749;23;20055;-82
2023/10/09 01:40:16;;;;;;;48.28;31.80;;;22.10;92.90;;;;;;6218694;23;20312;-82
2023/10/09 01:42:47;;;;;;;46.58;30.38;;;22.00;93.00;;;;;;6245939;23;20012;-82
2023/10/09 01:47:51;;;;;;;47.28;31.27;;;22.00;93.00;;;;;;6246892;23;20070;-82
2023/10/09 01:50:22;;;;;;;45.03;29.77;;;22.00;93.00;;;;;;6245057;23;20011;-81
2023/10/09 01:52:48;;;;;;;48.63;32.28;;;22.00;92.90;;;;;;6244790;23;20011;-82
2023/10/09 01:55:38;;;;;;;44.45;29.30;;;22.00;92.90;;;;;;6245058;23;20065;-82
2023/10/09 01:58:05;;;;;;;50.05;31.25;;;22.00;92.90;;;;;;6244402;23;20342;-82
2023/10/09 02:00:42;;;;;;;50.42;33.53;;;22.00;93.20;;;;;;6245664;23;20057;-82
2023/10/09 02:03:12;;;;;;;44.10;28.70;;;22.00;93.00;;;;;;6245361;23;20139;-81
2023/10/09 02:05:39;;;;;;;46.92;29.90;;;21.90;93.00;;;;;;6245638;23;20000;-82
2023/10/09 02:08:12;;;;;;;49.97;31.65;;;21.90;93.00;;;;;;6246077;23;19996;-82
2023/10/09 02:10:39;;;;;;;49.97;32.55;;;21.90;93.00;;;;;;6245286;23;20004;-81
2023/10/09 02:13:06;;;;;;;48.72;32.55;;;22.00;93.10;;;;;;6246175;23;20000;-82
2023/10/09 02:21:12;;;;;;;46.10;29.37;;;22.00;93.10;;;;;;6245318;23;20018;-81
2023/10/09 02:26:06;;;;;;;49.10;31.42;;;22.10;93.10;;;;;;6246606;23;20438;-81
2023/10/09 02:28:33;;;;;;;45.97;30.83;;;22.00;93.10;;;;;;6245640;23;20000;-82
2023/10/09 02:31:10;;;;;;;49.45;31.50;;;22.00;93.30;;;;;;6245506;23;20001;-81
2023/10/09 02:33:36;;;;;;;52.55;32.85;;;22.10;93.10;;;;;;6245615;23;20028;-82
2023/10/09 02:36:06;;;;;;;39.60;27.58;;;22.10;93.00;;;;;;6246075;23;20406;-81
2023/10/09 02:38:35;;;;;;;46.10;28.33;;;22.00;93.00;;;;;;6245658;23;20004;-82
2023/10/09 02:43:50;;;;;;;44.83;29.50;;;21.90;93.10;;;;;;6245594;23;20016;-81
2023/10/09 02:46:18;;;;;;;44.45;28.85;;;21.90;93.20;;;;;;6245631;23;19992;-79
2023/10/09 02:48:50;;;;;;;43.67;29.08;;;21.90;93.20;;;;;;6245753;23;20003;-79
2023/10/09 02:54:07;;;;;;;46.50;30.73;;;21.90;93.30;;;;;;6246343;23;20015;-81
2023/10/09 02:56:43;;;;;;;49.83;31.45;;;21.90;93.20;;;;;;6245532;23;20019;-82
2023/10/09 02:59:09;;;;;;;43.50;28.85;;;21.90;93.10;;;;;;6245190;23;20004;-81
2023/10/09 03:01:37;;;;;;;45.25;29.23;;;21.90;93.10;;;;;;6245229;23;20000;-81
2023/10/09 03:04:05;;;;;;;45.78;30.20;;;21.90;93.10;;;;;;6245005;23;20327;-82
2023/10/09 03:06:32;;;;;;;44.30;28.73;;;21.90;93.00;;;;;;6218902;23;20000;-82
2023/10/09 03:08:58;;;;;;;45.50;28.98;;;21.90;92.90;;;;;;6220581;23;20075;-80
2023/10/09 03:11:26;;;;;;;40.75;28.25;;;22.00;92.90;;;;;;6247829;23;20042;-81
2023/10/09 03:13:53;;;;;;;45.45;29.40;;;21.90;92.90;;;;;;6246378;23;20050;-80
2023/10/09 03:16:19;;;;;;;45.10;30.80;;;21.90;92.90;;;;;;6247393;23;20039;-81
2023/10/09 03:18:49;;;;;;;45.20;29.67;;;21.90;92.90;;;;;;6247134;23;20004;-81
2023/10/09 03:21:17;;;;;;;;;;;21.90;92.90;;;;;;6247763;23;20034;-81
2023/10/09 03:23:49;;;;;;;46.35;31.08;;;21.90;92.90;;;;;;6219831;23;19903;-81
2023/10/09 03:26:17;;;;;;;45.50;28.70;;;21.90;92.90;;;;;;6247021;23;20098;-81
2023/10/09 03:28:44;;;;;;;49.25;31.83;;;21.90;92.90;;;;;;6246998;23;20000;-81
2023/10/09 03:31:11;;;;;;;42.80;29.67;;;21.80;92.90;;;;;;6247260;23;20014;-80
2023/10/09 03:33:36;;;;;;;46.53;31.20;;;21.80;92.80;;;;;;6246597;23;20494;-80
2023/10/09 03:36:07;;;;;;;44.97;30.98;;;21.90;92.90;;;;;;6246185;23;20000;-80
2023/10/09 03:38:34;;;;;;;52.22;31.08;;;21.80;92.80;;;;;;6246961;23;20035;-79
2023/10/09 03:41:06;;;;;;;50.45;31.75;;;21.80;92.90;;;;;;6247136;23;20008;-80
2023/10/09 03:43:42;;;;;;;48.75;30.75;;;21.80;92.90;;;;;;6247127;23;20041;-79
2023/10/09 03:46:27;;;;;;;50.80;31.08;;;21.80;92.90;;;;;;6246598;23;19996;-79
2023/10/09 03:48:56;;;;;;;50.88;31.40;;;21.80;92.90;;;;;;6246764;23;19996;-79
2023/10/09 03:51:22;;;;;;;51.13;32.50;;;21.80;92.90;;;;;;6220083;23;20004;-79
2023/10/09 03:53:49;;;;;;;43.67;29.42;;;21.80;92.90;;;;;;6247019;23;20004;-79
2023/10/09 03:56:18;;;;;;;45.63;30.10;;;21.70;92.90;;;;;;6246860;23;20407;-79
2023/10/09 03:58:46;;;;;;;46.43;30.03;;;21.70;93.00;;;;;;6247229;23;20000;-79
2023/10/09 04:01:28;;;;;;;47.35;30.63;;;21.60;93.00;;;;;;6219308;23;20035;-79
2023/10/09 04:04:00;;;;;;;43.00;29.98;;;21.60;93.10;;;;;;6246851;23;20076;-81
2023/10/09 04:06:31;;;;;;;48.03;30.60;;;21.60;93.00;;;;;;6246612;23;20047;-81
2023/10/09 04:08:58;;;;;;;47.97;30.55;;;21.60;93.10;;;;;;6247473;23;20007;-81
2023/10/09 04:11:25;;;;;;;50.85;32.47;;;21.50;93.10;;;;;;6245661;23;20005;-81
2023/10/09 04:13:52;;;;;;;46.47;30.90;;;21.50;93.20;;;;;;6246602;23;20000;-81
2023/10/09 04:18:59;;;;;;;49.33;32.72;;;21.60;93.20;;;;;;6247461;23;20013;-81
2023/10/09 04:21:35;;;;;;;47.80;31.15;;;21.60;93.20;;;;;;6246497;23;20005;-82
2023/10/09 04:26:44;;;;;;;49.70;31.15;;;21.50;93.20;;;;;;6248341;23;20004;-82
2023/10/09 04:29:10;;;;;;;48.65;32.03;;;21.50;93.20;;;;;;6247128;23;19996;-82
2023/10/09 04:31:37;;;;;;;52.40;32.03;;;21.50;93.30;;;;;;6246611;23;20000;-82
2023/10/09 04:36:57;;;;;;;48.85;31.17;;;21.50;93.30;;;;;;6246109;23;20031;-82
2023/10/09 04:47:36;;;;;;;46.15;30.83;;;21.40;93.30;;;;;;6190102;23;20000;-83
2023/10/09 04:50:11;;;;;;;45.90;30.15;;;21.40;93.30;;;;;;6246493;23;20038;-83
2023/10/09 04:57:45;;;;;;;50.28;31.65;;;21.40;93.40;;;;;;6247065;23;20012;-83
2023/10/09 05:03:25;;;;;;;48.33;30.90;;;21.40;93.40;;;;;;6246350;23;20078;-82
2023/10/09 05:05:58;;;;;;;52.35;32.58;;;21.40;93.50;;;;;;6245518;23;20334;-82
2023/10/09 05:16:29;;;;;;;44.60;30.38;;;21.40;93.60;;;;;;6244790;23;20050;-82
2023/10/09 05:19:28;;;;;;;;;;;21.40;93.70;;;;;;6246235;23;20095;-85
2023/10/09 05:21:58;;;;;;;45.17;30.13;;;21.40;93.80;;;;;;6218982;23;19975;-82
2023/10/09 05:24:28;;;;;;;44.60;29.87;;;21.40;93.80;;;;;;6246196;23;20053;-82
2023/10/09 05:27:15;;;;;;;43.72;29.15;;;21.40;93.80;;;;;;6245519;23;20468;-83
2023/10/09 05:29:59;;;;;;;50.17;30.58;;;21.40;93.90;;;;;;6246620;23;20011;-84
2023/10/09 05:32:29;;;;;;;44.90;29.45;;;21.40;93.90;;;;;;6247016;23;20079;-84
2023/10/09 05:37:43;;;;;;;43.47;29.25;;;21.40;93.90;;;;;;6257141;23;20018;-85
2023/10/09 05:47:54;;;;;;;49.78;28.33;;;21.40;93.80;;;;;;6247821;23;20008;-84
2023/10/09 06:09:10;;;;;;;39.30;25.52;;;21.40;93.60;;;;;;6256926;23;20054;-87
2023/10/09 06:14:25;;;;;;;39.25;26.30;;;21.40;93.50;;;;;;6122562;23;20125;-90
2023/10/09 06:19:27;;;;;;;36.33;24.75;;;21.40;93.50;;;;;;6241100;23;20012;-81
2023/10/09 06:35:30;;;;;;;41.50;24.88;;;21.40;93.40;;;;;;6248403;23;20355;-81
2023/10/09 06:43:31;;;;;;;34.90;21.98;;;21.40;93.40;;;;;;6180112;23;20035;-81
2023/10/09 06:45:58;;;;;;;33.72;22.38;;;21.40;93.30;;;;;;6246681;23;20418;-82
2023/10/09 06:51:07;;;;;;;28.58;18.50;;;21.50;93.00;;;;;;6246716;23;20018;-81
2023/10/09 06:58:55;;;;;;;28.83;19.70;;;21.50;92.50;;;;;;6249341;23;20039;-84
2023/10/09 07:03:53;;;;;;;26.98;18.52;;;21.70;92.40;;;;;;6258349;23;20004;-85
2023/10/09 07:06:23;;;;;;;26.33;17.33;;;21.60;92.20;;;;;;6248131;23;20076;-86
2023/10/09 07:17:21;;;;;;;24.60;15.77;;;21.70;92.10;;;;;;6250388;23;20019;-85
2023/10/09 07:24:56;;;;;;;21.33;15.02;;;21.90;91.80;;;;;;6246887;23;20012;-87
2023/10/09 07:27:48;;;;;;;23.20;14.68;;;21.90;91.60;;;;;;6247030;23;20385;-81
2023/10/09 07:35:47;;;;;;;19.92;12.93;;;22.00;91.30;;;;;;6248436;23;20008;-85
2023/10/09 07:38:20;;;;;;;20.60;12.05;;;22.10;91.20;;;;;;6247363;23;20445;-84
2023/10/09 07:43:39;;;;;;;18.90;12.65;;;22.20;91.00;;;;;;6248675;23;20350;-85
2023/10/09 07:48:58;;;;;;;22.00;12.68;;;22.30;90.70;;;;;;6246537;23;20166;-86
2023/10/09 07:51:30;;;;;;;;;;;22.40;90.70;;;;;;6248022;23;20000;-86
2023/10/09 07:54:06;;;;;;;19.98;12.68;;;22.40;90.40;;;;;;6247194;23;20329;-85
2023/10/09 07:56:41;;;;;;;18.13;12.35;;;22.50;90.40;;;;;;6247775;23;20004;-86
2023/10/09 07:59:10;;;;;;;20.95;12.05;;;22.50;90.50;;;;;;6248017;23;20072;-86
2023/10/09 08:02:02;;;;;;;17.42;11.40;;;22.60;90.50;;;;;;6247839;23;20008;-86
2023/10/09 08:07:19;;;;;;;16.52;11.18;;;22.70;90.30;;;;;;6247935;23;20297;-85
2023/10/09 08:11:35;;;;;;;22.42;13.13;;;22.80;90.10;;;;;;6247021;23;19996;-87
2023/10/09 08:12:57;;;;;;;19.85;11.60;;;22.90;90.00;;;;;;6247323;23;20075;-85
2023/10/09 08:15:51;;;;;;;15.73;10.63;;;23.00;90.10;;;;;;6247277;23;20000;-86
2023/10/09 08:18:27;;;;;;;16.92;10.25;;;23.10;90.20;;;;;;6220119;23;20000;-85
2023/10/09 08:23:33;;;;;;;13.93;9.20;;;23.40;90.20;;;;;;6250433;23;20004;-86
2023/10/09 08:26:15;;;;;;;11.90;7.68;;;23.50;88.90;;;;;;6220292;23;20058;-85
2023/10/09 08:28:45;;;;;;;13.68;8.00;;;23.60;89.20;;;;;;6246958;23;20026;-86
2023/10/09 08:31:45;;;;;;;12.05;7.03;;;23.70;88.90;;;;;;6247039;23;20047;-85
2023/10/09 08:34:09;;;;;;;10.55;7.35;;;23.80;89.00;;;;;;6246264;23;20008;-84
2023/10/09 08:36:38;;;;;;;9.43;6.78;;;24.00;88.10;;;;;;6247419;23;20004;-86
2023/10/09 08:39:25;;;;;;;21.15;10.32;;;24.10;87.90;;;;;;6247119;23;20071;-84
2023/10/09 08:41:52;;;;;;;13.43;7.22;;;24.20;86.50;;;;;;6220210;23;20016;-84
2023/10/09 08:44:23;;;;;;;12.82;7.38;;;24.30;87.00;;;;;;6247576;23;20124;-85
2023/10/09 08:46:50;;;;;;;12.32;8.15;;;24.40;87.20;;;;;;6246991;23;20436;-85
2023/10/09 08:49:17;;;;;;;15.35;8.90;;;24.50;87.20;;;;;;6247059;23;20004;-84
2023/10/09 08:51:42;;;;;;;12.50;8.70;;;24.60;86.90;;;;;;6247577;23;20078;-85
2023/10/09 08:54:11;;;;;;;11.80;8.00;;;24.70;86.80;;;;;;6247620;23;20419;-85
2023/10/09 08:56:39;;;;;;;14.13;8.65;;;24.80;86.70;;;;;;6220562;23;20008;-85
2023/10/09 08:59:05;;;;;;;16.90;10.70;;;24.90;86.00;;;;;;6247612;23;20027;-85
2023/10/09 09:01:34;;;;;;;17.90;11.05;;;25.00;85.50;;;;;;6246969;23;20415;-85
2023/10/09 09:04:02;;;;;;;14.43;10.13;;;25.00;85.90;;;;;;6247046;23;20446;-85
2023/10/09 09:06:40;;;;;;;15.43;10.77;;;25.10;85.40;;;;;;6246746;23;20026;-85
2023/10/09 09:09:15;;;;;;;16.20;11.43;;;25.30;85.20;;;;;;6247246;23;19996;-85
2023/10/09 09:11:52;;;;;;;19.40;12.68;;;25.30;85.00;;;;;;6247540;23;20004;-85
2023/10/09 09:14:22;;;;;;;19.15;11.68;;;25.40;85.20;;;;;;6247155;23;20000;-85
2023/10/09 09:16:52;;;;;;;16.63;11.88;;;25.60;85.10;;;;;;6246485;23;20088;-85
2023/10/09 09:19:17;;;;;;;21.38;13.65;;;25.70;85.10;;;;;;6246318;23;20334;-85
2023/10/09 09:22:11;;;;;;;22.05;13.30;;;25.80;85.00;;;;;;6247145;23;20000;-84
2023/10/09 09:24:37;;;;;;;25.40;12.75;;;25.90;84.80;;;;;;6246668;23;20000;-86
2023/10/09 09:27:12;;;;;;;23.33;12.88;;;26.10;84.80;;;;;;6247066;23;19996;-86
2023/10/09 09:29:40;;;;;;;20.45;13.98;;;26.20;84.60;;;;;;6246154;23;20000;-85
2023/10/09 09:32:20;;;;;;;24.85;16.67;;;26.30;84.50;;;;;;6246600;23;20027;-86
2023/10/09 09:34:46;;;;;;;;;;;26.40;84.60;;;;;;6247269;23;20000;-86
2023/10/09 09:37:20;;;;;;;23.38;14.07;;;26.50;84.30;;;;;;6246351;23;19906;-86
2023/10/09 09:39:51;;;;;;;52.92;17.77;;;26.60;84.20;;;;;;6246765;23;20004;-85
2023/10/09 09:42:24;;;;;;;31.05;14.38;;;26.80;84.00;;;;;;6246155;23;20434;-87
2023/10/09 09:44:51;;;;;;;19.65;12.90;;;26.80;83.90;;;;;;6246489;23;19996;-87
2023/10/09 09:47:23;;;;;;;25.38;14.68;;;26.90;83.40;;;;;;6245990;23;20004;-87
2023/10/09 09:49:52;;;;;;;23.42;15.80;;;27.00;82.90;;;;;;6247248;23;20008;-87
2023/10/09 09:52:18;;;;;;;30.80;17.60;;;27.10;83.10;;;;;;6246317;23;20001;-87
2023/10/09 09:54:44;;;;;;;32.03;22.15;;;27.20;83.20;;;;;;6246594;23;20007;-87
2023/10/09 09:57:15;;;;;;;28.50;18.33;;;27.30;82.30;;;;;;6246208;23;20378;-87
2023/10/09 09:59:49;;;;;;;26.48;17.52;;;27.30;82.80;;;;;;6246740;23;20000;-86
2023/10/09 10:02:28;;;;;;;24.25;15.63;;;27.30;83.20;;;;;;6246923;23;20004;-88
2023/10/09 10:04:57;;;;;;;25.08;16.65;;;27.50;83.10;;;;;;6244795;23;20004;-85
2023/10/09 10:07:25;;;;;;;24.58;18.08;;;27.60;83.10;;;;;;6244381;23;20087;-85
2023/10/09 10:09:54;;;;;;;27.45;20.75;;;27.70;82.70;;;;;;6241734;23;20004;-84
2023/10/09 10:13:00;;;;;;;25.97;17.60;;;27.70;82.20;;;;;;6215404;23;20004;-85
2023/10/09 10:16:11;;;;;;;22.67;15.63;;;27.80;82.00;;;;;;6243208;23;20002;-81
2023/10/09 10:21:40;;;;;;;20.75;14.90;;;28.00;82.00;;;;;;6244986;23;20055;-81
2023/10/09 10:24:31;;;;;;;23.92;17.25;;;28.00;82.20;;;;;;6217142;23;20004;-80
2023/10/09 10:30:12;;;;;;;22.58;15.38;;;28.30;81.90;;;;;;6197206;23;20093;-81
2023/10/09 10:32:57;;;;;;;22.65;16.58;;;28.40;81.70;;;;;;6243913;23;20001;-81
2023/10/09 10:35:36;;;;;;;24.90;18.77;;;28.50;81.10;;;;;;6244935;23;20000;-81
2023/10/09 10:38:11;;;;;;;22.10;16.92;;;28.60;81.10;;;;;;6243888;23;20000;-81
2023/10/09 10:40:46;;;;;;;26.58;18.75;;;28.70;80.80;;;;;;6244732;23;20004;-81
2023/10/09 10:43:47;;;;;;;31.20;20.58;;;28.80;80.30;;;;;;6244473;23;20043;-81
2023/10/09 10:46:15;;;;;;;26.27;16.15;;;28.70;80.30;;;;;;6244730;23;20391;-80
2023/10/09 10:48:46;;;;;;;24.80;18.50;;;28.80;80.80;;;;;;6244367;23;20390;-81
2023/10/09 10:51:14;;;;;;;30.10;20.52;;;29.00;80.80;;;;;;6241974;23;20004;-81
2023/10/09 10:53:59;;;;;;;23.73;17.58;;;29.10;80.40;;;;;;6244028;23;20083;-81
2023/10/09 10:56:37;;;;;;;31.25;21.33;;;29.20;80.60;;;;;;6244992;23;20027;-80
2023/10/09 11:01:52;;;;;;;30.05;21.60;;;29.30;80.00;;;;;;6247076;23;20027;-81
2023/10/09 11:05:13;;;;;;;26.58;19.60;;;29.30;79.60;;;;;;6243984;23;20510;-81
2023/10/09 11:18:07;;;;;;;23.50;17.50;;;29.60;79.70;;;;;;6245467;23;20031;-81
2023/10/09 11:20:38;;;;;;;29.70;20.35;;;29.80;79.50;;;;;;6243119;23;20326;-81
2023/10/09 11:23:14;;;;;;;26.75;18.65;;;29.90;79.00;;;;;;6242362;23;20378;-85
2023/10/09 11:25:52;;;;;;;24.48;17.05;;;30.00;78.70;;;;;;6242679;23;20003;-85
2023/10/09 11:28:43;;;;;;;24.58;17.17;;;30.10;78.40;;;;;;6244599;23;19996;-85
2023/10/09 11:31:12;;;;;;;22.05;16.08;;;30.20;78.50;;;;;;6244839;23;20011;-85
2023/10/09 11:33:51;;;;;;;26.27;17.10;;;30.30;78.10;;;;;;6244838;23;20000;-79
2023/10/09 11:36:32;;;;;;;21.77;15.95;;;30.30;77.70;;;;;;6245487;23;20000;-80
2023/10/09 11:39:18;;;;;;;21.20;13.95;;;30.40;77.50;;;;;;6245895;23;20376;-80
2023/10/09 11:41:44;;;;;;;25.42;16.00;;;30.50;77.30;;;;;;6245711;23;20322;-79
2023/10/09 11:44:23;;;;;;;23.45;16.70;;;30.70;76.80;;;;;;6245211;23;20011;-80
2023/10/09 11:47:14;;;;;;;28.17;18.20;;;30.80;76.40;;;;;;6244211;23;20005;-79
2023/10/09 11:49:58;;;;;;;20.73;16.17;;;30.90;75.60;;;;;;6245358;23;20004;-80
2023/10/09 11:52:35;;;;;;;22.77;16.05;;;30.90;75.60;;;;;;6245204;23;20439;-80
2023/10/09 11:55:02;;;;;;;21.27;15.50;;;30.90;75.70;;;;;;6216425;23;20070;-77
2023/10/09 11:57:31;;;;;;;20.80;16.55;;;30.90;75.20;;;;;;6245155;23;20416;-78
2023/10/09 12:00:47;;;;;;;26.00;15.93;;;31.00;75.10;;;;;;6246177;23;20426;-79
2023/10/09 12:02:52;;;;;;;20.88;14.50;;;31.10;75.00;;;;;;6227421;23;20014;-78
2023/10/09 12:05:18;;;;;;;20.85;14.85;;;31.10;75.20;;;;;;6246586;23;20079;-78
2023/10/09 12:07:54;;;;;;;19.08;14.23;;;31.20;75.00;;;;;;6247043;23;20000;-78
2023/10/09 12:10:25;;;;;;;28.38;16.48;;;31.30;74.80;;;;;;6247367;23;20020;-77
2023/10/09 12:12:52;;;;;;;22.17;13.75;;;31.20;74.50;;;;;;6246465;23;20007;-77
2023/10/09 12:15:19;;;;;;;18.10;14.00;;;31.20;74.90;;;;;;6246496;23;20011;-77
2023/10/09 12:17:46;;;;;;;21.75;14.18;;;31.20;74.80;;;;;;6246583;23;20051;-77
2023/10/09 12:20:31;;;;;;;22.45;15.43;;;31.20;74.80;;;;;;6246817;23;20004;-77
2023/10/09 12:23:04;;;;;;;22.58;15.40;;;31.20;75.00;;;;;;6220056;23;20139;-76
2023/10/09 12:25:31;;;;;;;22.23;16.08;;;31.30;74.80;;;;;;6246747;23;20055;-76
2023/10/09 12:28:04;;;;;;;23.88;15.75;;;31.30;75.10;;;;;;6246373;23;20030;-76
2023/10/09 12:30:39;;;;;;;20.42;14.00;;;31.20;74.40;;;;;;6246989;23;20303;-78
2023/10/09 12:33:07;;;;;;;26.08;17.27;;;31.20;74.30;;;;;;6246943;23;20010;-76
2023/10/09 12:35:37;;;;;;;23.40;16.42;;;31.20;74.00;;;;;;6220262;23;20083;-83
2023/10/09 12:38:08;;;;;;;23.77;16.95;;;31.10;74.20;;;;;;6246485;23;20039;-82
2023/10/09 12:40:35;;;;;;;21.55;14.82;;;31.10;74.30;;;;;;6219362;23;20416;-82
2023/10/09 12:43:01;;;;;;;23.38;17.55;;;31.00;74.60;;;;;;6247209;23;20326;-82
2023/10/09 12:45:27;;;;;;;21.55;16.10;;;30.90;74.90;;;;;;6246286;23;19997;-81
2023/10/09 12:47:59;;;;;;;20.23;15.50;;;30.90;75.10;;;;;;6246678;23;20023;-77
2023/10/09 12:50:28;;;;;;;21.27;16.20;;;30.90;75.10;;;;;;6246312;23;20000;-76
2023/10/09 12:53:06;;;;;;;23.30;16.83;;;30.80;74.70;;;;;;6246901;23;20007;-76
2023/10/09 12:55:41;;;;;;;24.80;17.55;;;30.70;74.80;;;;;;6246104;23;20016;-75
2023/10/09 12:58:09;;;;;;;26.35;17.25;;;30.70;74.60;;;;;;6246842;23;20007;-75
2023/10/09 13:00:43;;;;;;;22.58;16.30;;;30.50;74.80;;;;;;6246813;23;20000;-76
2023/10/09 13:03:16;;;;;;;26.63;17.05;;;30.30;74.80;;;;;;6246816;23;20089;-75
2023/10/09 13:05:53;;;;;;;25.88;17.17;;;30.20;75.50;;;;;;6246329;23;20000;-76
2023/10/09 13:08:31;;;;;;;27.70;17.00;;;30.00;75.80;;;;;;6246487;23;20000;-75
2023/10/09 13:11:10;;;;;;;24.80;16.70;;;29.80;76.20;;;;;;6245836;23;20079;-76
2023/10/09 13:13:42;;;;;;;23.30;15.73;;;29.60;76.40;;;;;;6219754;23;20058;-77
2023/10/09 13:16:24;;;;;;;23.60;17.20;;;29.50;76.80;;;;;;6219950;23;20030;-82
2023/10/09 13:18:51;;;;;;;22.45;15.60;;;29.40;76.70;;;;;;6246206;23;20071;-77
2023/10/09 13:21:31;;;;;;;24.80;15.98;;;29.20;77.10;;;;;;6220432;23;20381;-81
2023/10/09 13:23:58;;;;;;;21.02;15.90;;;29.10;77.80;;;;;;6247730;23;20067;-81
2023/10/09 13:26:27;;;;;;;21.27;16.30;;;28.90;77.90;;;;;;6249147;23;20000;-81
2023/10/09 13:28:57;;;;;;;21.83;15.55;;;28.80;77.90;;;;;;6249864;23;20003;-81
2023/10/09 13:31:26;;;;;;;26.13;17.08;;;28.70;78.20;;;;;;6250566;23;20089;-81
2023/10/09 13:33:55;;;;;;;24.73;18.17;;;28.60;78.70;;;;;;6248882;23;20000;-81
2023/10/09 13:36:31;;;;;;;25.75;17.88;;;28.50;79.50;;;;;;6249516;23;20315;-81
2023/10/09 13:39:24;;;;;;;28.50;16.85;;;28.40;79.70;;;;;;6251543;23;20004;-81
2023/10/09 13:41:58;;;;;;;24.63;16.98;;;28.30;80.00;;;;;;6249739;23;20072;-82
2023/10/09 13:44:31;;;;;;;25.95;17.13;;;28.30;79.60;;;;;;6249292;23;20107;-83
2023/10/09 13:47:04;;;;;;;30.50;18.15;;;28.20;79.90;;;;;;6246694;23;20050;-82
2023/10/09 13:49:32;;;;;;;25.00;16.77;;;28.10;80.40;;;;;;6249122;23;20000;-82
2023/10/09 13:52:02;;;;;;;23.35;16.35;;;28.00;80.30;;;;;;6250089;23;20011;-83
2023/10/09 13:54:38;;;;;;;23.42;16.02;;;28.00;80.80;;;;;;6247477;23;20054;-83
2023/10/09 13:57:07;;;;;;;21.55;16.17;;;27.90;81.10;;;;;;6249092;23;20016;-82
2023/10/09 13:59:43;;;;;;;23.63;16.90;;;27.80;81.10;;;;;;6245902;23;20000;-77
2023/10/09 14:02:09;;;;;;;20.50;13.88;;;27.80;81.30;;;;;;6245041;23;20006;-78
2023/10/09 14:04:35;;;;;;;22.15;15.32;;;27.70;81.30;;;;;;6245113;23;20012;-78
2023/10/09 14:07:05;;;;;;;22.20;16.00;;;27.80;81.40;;;;;;6245109;23;20015;-77
2023/10/09 14:09:31;;;;;;;;;;;27.70;81.50;;;;;;6246845;23;20007;-78
2023/10/09 14:12:09;;;;;;;20.73;14.02;;;27.60;81.70;;;;;;6218101;23;19900;-77
2023/10/09 14:14:53;;;;;;;23.13;16.30;;;27.60;82.10;;;;;;6246236;23;20004;-77
2023/10/09 14:17:25;;;;;;;24.00;15.50;;;27.50;82.50;;;;;;6221667;23;20008;-78
2023/10/09 14:20:00;;;;;;;26.23;16.85;;;27.50;82.70;;;;;;6217338;23;20330;-76
2023/10/09 14:22:26;;;;;;;30.05;17.88;;;27.40;82.90;;;;;;6245134;23;20057;-77
2023/10/09 14:24:56;;;;;;;31.33;16.58;;;27.40;83.00;;;;;;6245292;23;20424;-77
2023/10/09 14:27:26;;;;;;;23.05;15.02;;;27.30;83.10;;;;;;6245003;23;19996;-76
2023/10/09 14:29:59;;;;;;;23.38;17.58;;;27.30;83.40;;;;;;6244911;23;20004;-76
2023/10/09 14:32:43;;;;;;;30.58;18.85;;;27.30;83.70;;;;;;6244517;23;20008;-78
2023/10/09 14:35:15;;;;;;;28.13;18.70;;;27.20;84.10;;;;;;6245382;23;20050;-77
2023/10/09 14:37:41;;;;;;;28.35;19.75;;;27.20;84.30;;;;;;6245369;23;20426;-77
2023/10/09 14:40:13;;;;;;;24.75;17.45;;;27.20;84.40;;;;;;6245037;23;20006;-77
2023/10/09 14:42:45;;;;;;;24.65;18.50;;;27.10;84.30;;;;;;6218228;23;20043;-77
2023/10/09 14:45:16;;;;;;;29.10;17.05;;;27.10;84.30;;;;;;6218796;23;20004;-79
2023/10/09 14:47:47;;;;;;;25.27;17.50;;;27.10;84.40;;;;;;6218640;23;20427;-77
2023/10/09 14:50:13;;;;;;;25.65;18.50;;;27.00;84.40;;;;;;6245882;23;19996;-78
2023/10/09 14:52:40;;;;;;;27.83;18.02;;;27.00;84.50;;;;;;6245426;23;20440;-77
2023/10/09 14:55:07;;;;;;;27.42;17.95;;;27.00;84.50;;;;;;6244498;23;20016;-77
2023/10/09 14:57:33;;;;;;;23.58;16.73;;;26.90;84.70;;;;;;6218904;23;20377;-76
2023/10/09 15:00:13;;;;;;;25.08;17.55;;;26.90;85.30;;;;;;6245216;23;20288;-77
2023/10/09 15:02:39;;;;;;;28.20;17.25;;;26.90;84.80;;;;;;6245482;23;20397;-76
2023/10/09 15:05:10;;;;;;;25.90;17.33;;;26.80;84.90;;;;;;6247368;23;19996;-76
2023/10/09 15:07:38;;;;;;;25.00;17.58;;;26.80;85.00;;;;;;6247882;23;20023;-76
2023/10/09 15:10:05;;;;;;;23.70;16.15;;;26.80;84.90;;;;;;6246884;23;20079;-77
2023/10/09 15:12:31;;;;;;;28.00;17.55;;;26.80;85.00;;;;;;6247693;23;20075;-76
2023/10/09 15:14:57;;;;;;;28.10;18.27;;;26.70;85.10;;;;;;6247873;23;20026;-77
2023/10/09 15:17:24;;;;;;;29.80;17.70;;;26.70;85.10;;;;;;6247578;23;19996;-77
2023/10/09 15:19:56;;;;;;;23.65;17.15;;;26.70;85.20;;;;;;6247923;23;19997;-77
2023/10/09 15:22:22;;;;;;;24.40;16.55;;;26.70;85.40;;;;;;6247337;23;20099;-77
2023/10/09 15:24:48;;;;;;;24.95;16.50;;;26.70;85.60;;;;;;6247282;23;20418;-77
2023/10/09 15:27:15;;;;;;;26.00;18.05;;;26.70;85.70;;;;;;6245401;23;20011;-76
2023/10/09 15:29:44;;;;;;;26.80;18.10;;;26.70;85.70;;;;;;6246490;23;20326;-76
2023/10/09 15:32:15;;;;;;;26.50;19.33;;;26.60;85.90;;;;;;6246881;23;20079;-78
2023/10/09 15:34:41;;;;;;;28.55;19.98;;;26.60;86.20;;;;;;6247338;23;20005;-77
2023/10/09 15:37:07;;;;;;;34.25;19.63;;;26.60;86.50;;;;;;6247689;23;20370;-77
2023/10/09 15:39:37;;;;;;;29.08;18.70;;;26.50;86.80;;;;;;6247069;23;20026;-77
2023/10/09 15:42:06;;;;;;;26.58;19.33;;;26.50;87.10;;;;;;6246811;23;20009;-77
2023/10/09 15:44:38;;;;;;;27.00;18.80;;;26.40;87.50;;;;;;6246682;23;20022;-78